sensor_id;sensor_type;location;lat;lon;timestamp;P1;durP1;ratioP1;P2;durP2;ratioP2
23187;SDS011;11762;59.878;17.686;2022-12-11T00:05:37;4.80;;;2.30;;
23187;SDS011;11762;59.878;17.686;2022-12-11T00:08:04;7.77;;;2.40;;
23187;SDS011;11762;59.878;17.686;2022-12-11T00:10:32;6.33;;;2.40;;
23187;SDS011;11762;59.878;17.686;2022-12-11T00:12:59;4.93;;;2.33;;
23187;SDS011;11762;59.878;17.686;2022-12-11T00:15:26;4.63;;;2.20;;
23187;SDS011;11762;59.878;17.686;2022-12-11T00:17:54;6.20;;;2.17;;
23187;SDS011;11762;59.878;17.686;2022-12-11T00:20:21;8.83;;;2.53;;
23187;SDS011;11762;59.878;17.686;2022-12-11T00:22:49;6.93;;;2.43;;
23187;SDS011;11762;59.878;17.686;2022-12-11T00:25:16;7.93;;;2.53;;
23187;SDS011;11762;59.878;17.686;2022-12-11T00:27:44;4.63;;;2.23;;
23187;SDS011;11762;59.878;17.686;2022-12-11T00:30:12;5.47;;;2.37;;
23187;SDS011;11762;59.878;17.686;2022-12-11T00:32:39;6.43;;;2.80;;
23187;SDS011;11762;59.878;17.686;2022-12-11T00:35:08;5.27;;;2.50;;
23187;SDS011;11762;59.878;17.686;2022-12-11T00:37:35;5.43;;;2.10;;
23187;SDS011;11762;59.878;17.686;2022-12-11T00:40:04;6.40;;;2.67;;
23187;SDS011;11762;59.878;17.686;2022-12-11T00:42:32;6.07;;;2.70;;
23187;SDS011;11762;59.878;17.686;2022-12-11T00:44:59;5.03;;;2.07;;
23187;SDS011;11762;59.878;17.686;2022-12-11T00:47:26;5.07;;;2.27;;
23187;SDS011;11762;59.878;17.686;2022-12-11T00:49:53;5.70;;;2.50;;
23187;SDS011;11762;59.878;17.686;2022-12-11T00:52:20;4.80;;;2.30;;
23187;SDS011;11762;59.878;17.686;2022-12-11T00:54:47;5.63;;;2.30;;
23187;SDS011;11762;59.878;17.686;2022-12-11T00:57:15;9.20;;;2.30;;
23187;SDS011;11762;59.878;17.686;2022-12-11T00:59:42;7.20;;;2.83;;
23187;SDS011;11762;59.878;17.686;2022-12-11T01:02:09;6.97;;;2.90;;
23187;SDS011;11762;59.878;17.686;2022-12-11T01:04:37;6.17;;;2.67;;
23187;SDS011;11762;59.878;17.686;2022-12-11T01:07:04;6.30;;;2.17;;
23187;SDS011;11762;59.878;17.686;2022-12-11T01:09:31;6.97;;;2.63;;
23187;SDS011;11762;59.878;17.686;2022-12-11T01:12:16;6.43;;;2.50;;
23187;SDS011;11762;59.878;17.686;2022-12-11T01:14:43;10.37;;;2.77;;
23187;SDS011;11762;59.878;17.686;2022-12-11T01:17:10;6.37;;;2.53;;
23187;SDS011;11762;59.878;17.686;2022-12-11T01:19:37;5.77;;;2.70;;
23187;SDS011;11762;59.878;17.686;2022-12-11T01:22:04;7.10;;;3.07;;
23187;SDS011;11762;59.878;17.686;2022-12-11T01:24:32;7.00;;;2.90;;
23187;SDS011;11762;59.878;17.686;2022-12-11T01:26:59;4.97;;;2.23;;
23187;SDS011;11762;59.878;17.686;2022-12-11T01:29:27;6.80;;;2.70;;
23187;SDS011;11762;59.878;17.686;2022-12-11T01:31:54;5.60;;;2.77;;
23187;SDS011;11762;59.878;17.686;2022-12-11T01:34:21;6.80;;;2.63;;
23187;SDS011;11762;59.878;17.686;2022-12-11T01:36:50;5.80;;;2.60;;
23187;SDS011;11762;59.878;17.686;2022-12-11T01:39:18;6.03;;;3.00;;
23187;SDS011;11762;59.878;17.686;2022-12-11T01:41:45;5.83;;;2.50;;
23187;SDS011;11762;59.878;17.686;2022-12-11T01:47:14;6.00;;;2.63;;
23187;SDS011;11762;59.878;17.686;2022-12-11T01:49:42;7.67;;;2.53;;
23187;SDS011;11762;59.878;17.686;2022-12-11T01:52:11;4.90;;;2.30;;
23187;SDS011;11762;59.878;17.686;2022-12-11T01:54:42;9.97;;;2.37;;
23187;SDS011;11762;59.878;17.686;2022-12-11T01:57:10;4.87;;;2.13;;
23187;SDS011;11762;59.878;17.686;2022-12-11T01:59:38;5.90;;;2.97;;
23187;SDS011;11762;59.878;17.686;2022-12-11T02:02:09;7.67;;;2.90;;
23187;SDS011;11762;59.878;17.686;2022-12-11T02:04:42;6.00;;;2.90;;
23187;SDS011;11762;59.878;17.686;2022-12-11T02:07:11;6.87;;;2.80;;
23187;SDS011;11762;59.878;17.686;2022-12-11T02:09:38;5.73;;;2.30;;
23187;SDS011;11762;59.878;17.686;2022-12-11T02:12:09;8.10;;;3.07;;
23187;SDS011;11762;59.878;17.686;2022-12-11T02:14:43;5.77;;;2.60;;
23187;SDS011;11762;59.878;17.686;2022-12-11T02:17:21;5.90;;;2.37;;
23187;SDS011;11762;59.878;17.686;2022-12-11T02:19:54;7.40;;;2.37;;
23187;SDS011;11762;59.878;17.686;2022-12-11T02:22:32;9.40;;;2.37;;
23187;SDS011;11762;59.878;17.686;2022-12-11T02:25:17;6.67;;;2.77;;
23187;SDS011;11762;59.878;17.686;2022-12-11T02:27:52;9.37;;;3.07;;
23187;SDS011;11762;59.878;17.686;2022-12-11T02:30:25;6.97;;;3.27;;
23187;SDS011;11762;59.878;17.686;2022-12-11T02:32:54;10.87;;;3.30;;
23187;SDS011;11762;59.878;17.686;2022-12-11T02:35:23;6.67;;;2.70;;
23187;SDS011;11762;59.878;17.686;2022-12-11T02:37:54;7.00;;;3.10;;
23187;SDS011;11762;59.878;17.686;2022-12-11T02:40:25;8.07;;;3.30;;
23187;SDS011;11762;59.878;17.686;2022-12-11T02:42:56;6.07;;;2.70;;
23187;SDS011;11762;59.878;17.686;2022-12-11T02:45:27;5.10;;;2.70;;
23187;SDS011;11762;59.878;17.686;2022-12-11T02:47:56;9.30;;;3.13;;
23187;SDS011;11762;59.878;17.686;2022-12-11T02:50:26;5.90;;;2.73;;
23187;SDS011;11762;59.878;17.686;2022-12-11T02:52:55;9.50;;;3.13;;
23187;SDS011;11762;59.878;17.686;2022-12-11T02:55:24;7.43;;;3.23;;
23187;SDS011;11762;59.878;17.686;2022-12-11T02:57:55;10.17;;;3.20;;
23187;SDS011;11762;59.878;17.686;2022-12-11T03:00:28;7.13;;;3.50;;
23187;SDS011;11762;59.878;17.686;2022-12-11T03:02:56;7.67;;;3.00;;
23187;SDS011;11762;59.878;17.686;2022-12-11T03:05:23;5.73;;;3.23;;
23187;SDS011;11762;59.878;17.686;2022-12-11T03:07:52;8.90;;;3.77;;
23187;SDS011;11762;59.878;17.686;2022-12-11T03:10:19;11.30;;;3.93;;
23187;SDS011;11762;59.878;17.686;2022-12-11T03:12:47;7.20;;;3.37;;
23187;SDS011;11762;59.878;17.686;2022-12-11T03:15:16;7.00;;;3.40;;
23187;SDS011;11762;59.878;17.686;2022-12-11T03:17:49;9.97;;;3.80;;
23187;SDS011;11762;59.878;17.686;2022-12-11T03:20:27;9.40;;;3.97;;
23187;SDS011;11762;59.878;17.686;2022-12-11T03:23:04;9.80;;;3.93;;
23187;SDS011;11762;59.878;17.686;2022-12-11T03:25:39;9.93;;;3.60;;
23187;SDS011;11762;59.878;17.686;2022-12-11T03:28:12;8.27;;;3.03;;
23187;SDS011;11762;59.878;17.686;2022-12-11T03:30:44;9.40;;;5.07;;
23187;SDS011;11762;59.878;17.686;2022-12-11T03:33:16;8.73;;;3.13;;
23187;SDS011;11762;59.878;17.686;2022-12-11T03:35:47;8.87;;;3.43;;
23187;SDS011;11762;59.878;17.686;2022-12-11T03:38:20;8.80;;;3.60;;
23187;SDS011;11762;59.878;17.686;2022-12-11T03:40:52;9.00;;;3.77;;
23187;SDS011;11762;59.878;17.686;2022-12-11T03:43:23;11.03;;;4.07;;
23187;SDS011;11762;59.878;17.686;2022-12-11T03:45:51;9.03;;;4.00;;
23187;SDS011;11762;59.878;17.686;2022-12-11T03:48:21;8.53;;;3.70;;
23187;SDS011;11762;59.878;17.686;2022-12-11T03:50:50;8.70;;;3.53;;
23187;SDS011;11762;59.878;17.686;2022-12-11T03:53:17;9.37;;;3.30;;
23187;SDS011;11762;59.878;17.686;2022-12-11T03:55:46;7.13;;;3.23;;
23187;SDS011;11762;59.878;17.686;2022-12-11T03:58:15;7.73;;;3.37;;
23187;SDS011;11762;59.878;17.686;2022-12-11T04:00:42;8.67;;;3.47;;
23187;SDS011;11762;59.878;17.686;2022-12-11T04:03:09;8.30;;;3.47;;
23187;SDS011;11762;59.878;17.686;2022-12-11T04:05:42;7.30;;;3.73;;
23187;SDS011;11762;59.878;17.686;2022-12-11T04:08:10;7.57;;;3.40;;
23187;SDS011;11762;59.878;17.686;2022-12-11T04:10:38;13.80;;;3.90;;
23187;SDS011;11762;59.878;17.686;2022-12-11T04:13:06;11.70;;;3.30;;
23187;SDS011;11762;59.878;17.686;2022-12-11T04:15:33;7.93;;;3.73;;
23187;SDS011;11762;59.878;17.686;2022-12-11T04:17:59;6.53;;;3.23;;
23187;SDS011;11762;59.878;17.686;2022-12-11T04:20:45;9.57;;;2.93;;
23187;SDS011;11762;59.878;17.686;2022-12-11T04:23:29;4.83;;;2.80;;
23187;SDS011;11762;59.878;17.686;2022-12-11T04:26:14;15.03;;;3.30;;
23187;SDS011;11762;59.878;17.686;2022-12-11T04:28:43;11.03;;;3.60;;
23187;SDS011;11762;59.878;17.686;2022-12-11T04:31:11;7.60;;;2.93;;
23187;SDS011;11762;59.878;17.686;2022-12-11T04:33:40;10.43;;;3.93;;
23187;SDS011;11762;59.878;17.686;2022-12-11T04:36:08;9.33;;;3.17;;
23187;SDS011;11762;59.878;17.686;2022-12-11T04:38:36;9.90;;;3.67;;
23187;SDS011;11762;59.878;17.686;2022-12-11T04:41:05;8.97;;;3.40;;
23187;SDS011;11762;59.878;17.686;2022-12-11T04:43:33;9.60;;;3.40;;
23187;SDS011;11762;59.878;17.686;2022-12-11T04:46:01;9.17;;;3.47;;
23187;SDS011;11762;59.878;17.686;2022-12-11T04:48:28;6.03;;;2.90;;
23187;SDS011;11762;59.878;17.686;2022-12-11T04:50:56;7.97;;;3.03;;
23187;SDS011;11762;59.878;17.686;2022-12-11T04:53:24;6.50;;;2.60;;
23187;SDS011;11762;59.878;17.686;2022-12-11T04:55:52;6.27;;;3.10;;
23187;SDS011;11762;59.878;17.686;2022-12-11T04:58:19;6.70;;;3.07;;
23187;SDS011;11762;59.878;17.686;2022-12-11T05:00:46;11.20;;;3.30;;
23187;SDS011;11762;59.878;17.686;2022-12-11T05:03:13;8.67;;;3.67;;
23187;SDS011;11762;59.878;17.686;2022-12-11T05:05:46;7.43;;;3.33;;
23187;SDS011;11762;59.878;17.686;2022-12-11T05:08:13;7.87;;;3.00;;
23187;SDS011;11762;59.878;17.686;2022-12-11T05:10:41;8.53;;;2.70;;
23187;SDS011;11762;59.878;17.686;2022-12-11T05:13:08;5.60;;;2.97;;
23187;SDS011;11762;59.878;17.686;2022-12-11T05:15:37;8.80;;;2.67;;
23187;SDS011;11762;59.878;17.686;2022-12-11T05:18:04;8.67;;;3.40;;
23187;SDS011;11762;59.878;17.686;2022-12-11T05:20:31;8.00;;;3.07;;
23187;SDS011;11762;59.878;17.686;2022-12-11T05:22:58;6.47;;;3.10;;
23187;SDS011;11762;59.878;17.686;2022-12-11T05:25:25;8.33;;;3.40;;
23187;SDS011;11762;59.878;17.686;2022-12-11T05:27:54;7.87;;;3.30;;
23187;SDS011;11762;59.878;17.686;2022-12-11T05:30:21;8.43;;;3.33;;
23187;SDS011;11762;59.878;17.686;2022-12-11T05:32:48;11.10;;;3.67;;
23187;SDS011;11762;59.878;17.686;2022-12-11T05:35:15;10.63;;;3.80;;
23187;SDS011;11762;59.878;17.686;2022-12-11T05:37:42;8.67;;;3.27;;
23187;SDS011;11762;59.878;17.686;2022-12-11T05:40:10;11.70;;;3.90;;
23187;SDS011;11762;59.878;17.686;2022-12-11T05:42:37;10.07;;;3.10;;
23187;SDS011;11762;59.878;17.686;2022-12-11T05:45:06;9.70;;;4.13;;
23187;SDS011;11762;59.878;17.686;2022-12-11T05:47:34;10.23;;;3.70;;
23187;SDS011;11762;59.878;17.686;2022-12-11T05:50:01;8.87;;;3.87;;
23187;SDS011;11762;59.878;17.686;2022-12-11T05:52:30;10.97;;;3.73;;
23187;SDS011;11762;59.878;17.686;2022-12-11T05:54:57;10.60;;;3.77;;
23187;SDS011;11762;59.878;17.686;2022-12-11T05:57:24;9.10;;;3.80;;
23187;SDS011;11762;59.878;17.686;2022-12-11T05:59:51;8.47;;;3.67;;
23187;SDS011;11762;59.878;17.686;2022-12-11T06:02:20;13.23;;;4.00;;
23187;SDS011;11762;59.878;17.686;2022-12-11T06:04:47;11.30;;;4.10;;
23187;SDS011;11762;59.878;17.686;2022-12-11T06:07:14;16.40;;;4.03;;
23187;SDS011;11762;59.878;17.686;2022-12-11T06:09:41;12.43;;;4.10;;
23187;SDS011;11762;59.878;17.686;2022-12-11T06:12:08;12.67;;;4.13;;
23187;SDS011;11762;59.878;17.686;2022-12-11T06:14:35;12.70;;;4.10;;
23187;SDS011;11762;59.878;17.686;2022-12-11T06:17:02;9.03;;;3.70;;
23187;SDS011;11762;59.878;17.686;2022-12-11T06:19:31;12.87;;;3.87;;
23187;SDS011;11762;59.878;17.686;2022-12-11T06:21:59;7.90;;;3.93;;
23187;SDS011;11762;59.878;17.686;2022-12-11T06:24:26;9.43;;;3.87;;
23187;SDS011;11762;59.878;17.686;2022-12-11T06:26:53;11.97;;;4.20;;
23187;SDS011;11762;59.878;17.686;2022-12-11T06:29:20;15.83;;;4.53;;
23187;SDS011;11762;59.878;17.686;2022-12-11T06:31:47;15.23;;;4.80;;
23187;SDS011;11762;59.878;17.686;2022-12-11T06:34:14;11.43;;;4.73;;
23187;SDS011;11762;59.878;17.686;2022-12-11T06:36:43;12.50;;;4.23;;
23187;SDS011;11762;59.878;17.686;2022-12-11T06:39:10;19.30;;;5.30;;
23187;SDS011;11762;59.878;17.686;2022-12-11T06:41:37;13.03;;;4.27;;
23187;SDS011;11762;59.878;17.686;2022-12-11T06:44:04;14.53;;;5.30;;
23187;SDS011;11762;59.878;17.686;2022-12-11T06:46:31;18.30;;;4.83;;
23187;SDS011;11762;59.878;17.686;2022-12-11T06:48:58;16.13;;;5.20;;
23187;SDS011;11762;59.878;17.686;2022-12-11T06:51:25;13.33;;;5.43;;
23187;SDS011;11762;59.878;17.686;2022-12-11T06:53:54;9.87;;;4.37;;
23187;SDS011;11762;59.878;17.686;2022-12-11T06:56:22;15.13;;;4.63;;
23187;SDS011;11762;59.878;17.686;2022-12-11T06:58:50;15.47;;;4.50;;
23187;SDS011;11762;59.878;17.686;2022-12-11T07:01:18;13.97;;;5.13;;
23187;SDS011;11762;59.878;17.686;2022-12-11T07:03:47;15.23;;;4.70;;
23187;SDS011;11762;59.878;17.686;2022-12-11T07:06:14;15.07;;;4.83;;
23187;SDS011;11762;59.878;17.686;2022-12-11T07:08:41;10.97;;;3.63;;
23187;SDS011;11762;59.878;17.686;2022-12-11T07:11:11;16.03;;;4.37;;
23187;SDS011;11762;59.878;17.686;2022-12-11T07:13:40;17.43;;;5.17;;
23187;SDS011;11762;59.878;17.686;2022-12-11T07:16:09;11.53;;;3.87;;
23187;SDS011;11762;59.878;17.686;2022-12-11T07:18:37;11.10;;;4.70;;
23187;SDS011;11762;59.878;17.686;2022-12-11T07:21:05;17.30;;;4.90;;
23187;SDS011;11762;59.878;17.686;2022-12-11T07:23:33;11.43;;;4.33;;
23187;SDS011;11762;59.878;17.686;2022-12-11T07:26:02;12.37;;;3.63;;
23187;SDS011;11762;59.878;17.686;2022-12-11T07:28:31;11.83;;;4.17;;
23187;SDS011;11762;59.878;17.686;2022-12-11T07:30:59;16.77;;;4.83;;
23187;SDS011;11762;59.878;17.686;2022-12-11T07:33:29;15.50;;;4.60;;
23187;SDS011;11762;59.878;17.686;2022-12-11T07:35:59;10.63;;;4.23;;
23187;SDS011;11762;59.878;17.686;2022-12-11T07:38:26;15.50;;;4.43;;
23187;SDS011;11762;59.878;17.686;2022-12-11T07:40:53;8.67;;;3.70;;
23187;SDS011;11762;59.878;17.686;2022-12-11T07:43:20;8.97;;;3.17;;
23187;SDS011;11762;59.878;17.686;2022-12-11T07:45:49;13.87;;;4.70;;
23187;SDS011;11762;59.878;17.686;2022-12-11T07:48:16;13.83;;;3.80;;
23187;SDS011;11762;59.878;17.686;2022-12-11T07:50:43;8.40;;;3.63;;
23187;SDS011;11762;59.878;17.686;2022-12-11T07:53:10;11.83;;;4.57;;
23187;SDS011;11762;59.878;17.686;2022-12-11T07:55:37;10.87;;;4.00;;
23187;SDS011;11762;59.878;17.686;2022-12-11T07:58:04;8.77;;;4.23;;
23187;SDS011;11762;59.878;17.686;2022-12-11T08:00:31;9.57;;;3.73;;
23187;SDS011;11762;59.878;17.686;2022-12-11T08:03:00;15.87;;;3.77;;
23187;SDS011;11762;59.878;17.686;2022-12-11T08:05:27;13.57;;;4.03;;
23187;SDS011;11762;59.878;17.686;2022-12-11T08:07:54;10.43;;;3.47;;
23187;SDS011;11762;59.878;17.686;2022-12-11T08:10:21;9.13;;;3.87;;
23187;SDS011;11762;59.878;17.686;2022-12-11T08:12:48;8.60;;;3.60;;
23187;SDS011;11762;59.878;17.686;2022-12-11T08:15:15;10.67;;;3.80;;
23187;SDS011;11762;59.878;17.686;2022-12-11T08:17:42;11.10;;;3.87;;
23187;SDS011;11762;59.878;17.686;2022-12-11T08:20:11;11.07;;;3.40;;
23187;SDS011;11762;59.878;17.686;2022-12-11T08:22:38;15.27;;;4.33;;
23187;SDS011;11762;59.878;17.686;2022-12-11T08:25:05;9.33;;;3.70;;
23187;SDS011;11762;59.878;17.686;2022-12-11T08:27:33;7.77;;;3.63;;
23187;SDS011;11762;59.878;17.686;2022-12-11T08:30:00;8.90;;;3.50;;
23187;SDS011;11762;59.878;17.686;2022-12-11T08:32:27;8.27;;;3.67;;
23187;SDS011;11762;59.878;17.686;2022-12-11T08:34:54;11.37;;;3.40;;
23187;SDS011;11762;59.878;17.686;2022-12-11T08:37:22;9.83;;;3.33;;
23187;SDS011;11762;59.878;17.686;2022-12-11T08:39:49;9.73;;;3.70;;
23187;SDS011;11762;59.878;17.686;2022-12-11T08:42:16;12.00;;;4.27;;
23187;SDS011;11762;59.878;17.686;2022-12-11T08:44:43;14.30;;;3.80;;
23187;SDS011;11762;59.878;17.686;2022-12-11T08:47:10;12.33;;;3.87;;
23187;SDS011;11762;59.878;17.686;2022-12-11T08:49:39;8.80;;;2.93;;
23187;SDS011;11762;59.878;17.686;2022-12-11T08:52:06;9.57;;;3.50;;
23187;SDS011;11762;59.878;17.686;2022-12-11T08:54:35;11.20;;;3.47;;
23187;SDS011;11762;59.878;17.686;2022-12-11T08:57:02;8.60;;;3.97;;
23187;SDS011;11762;59.878;17.686;2022-12-11T08:59:30;12.97;;;3.97;;
23187;SDS011;11762;59.878;17.686;2022-12-11T09:01:57;11.47;;;3.80;;
23187;SDS011;11762;59.878;17.686;2022-12-11T09:04:24;10.57;;;4.03;;
23187;SDS011;11762;59.878;17.686;2022-12-11T09:06:51;10.40;;;3.60;;
23187;SDS011;11762;59.878;17.686;2022-12-11T09:09:18;12.93;;;4.03;;
23187;SDS011;11762;59.878;17.686;2022-12-11T09:11:47;16.97;;;4.03;;
23187;SDS011;11762;59.878;17.686;2022-12-11T09:14:14;12.47;;;4.47;;
23187;SDS011;11762;59.878;17.686;2022-12-11T09:16:41;12.03;;;3.47;;
23187;SDS011;11762;59.878;17.686;2022-12-11T09:19:10;12.53;;;3.67;;
23187;SDS011;11762;59.878;17.686;2022-12-11T09:21:39;11.80;;;3.93;;
23187;SDS011;11762;59.878;17.686;2022-12-11T09:24:07;6.43;;;3.10;;
23187;SDS011;11762;59.878;17.686;2022-12-11T09:26:36;8.67;;;3.60;;
23187;SDS011;11762;59.878;17.686;2022-12-11T09:29:05;12.47;;;3.87;;
23187;SDS011;11762;59.878;17.686;2022-12-11T09:31:33;10.77;;;3.33;;
23187;SDS011;11762;59.878;17.686;2022-12-11T09:34:02;10.20;;;3.33;;
23187;SDS011;11762;59.878;17.686;2022-12-11T09:36:31;6.83;;;3.40;;
23187;SDS011;11762;59.878;17.686;2022-12-11T09:38:58;7.83;;;3.47;;
23187;SDS011;11762;59.878;17.686;2022-12-11T09:41:30;9.20;;;3.27;;
23187;SDS011;11762;59.878;17.686;2022-12-11T09:44:03;9.10;;;3.53;;
23187;SDS011;11762;59.878;17.686;2022-12-11T09:46:42;8.57;;;3.27;;
23187;SDS011;11762;59.878;17.686;2022-12-11T09:49:18;9.10;;;3.83;;
23187;SDS011;11762;59.878;17.686;2022-12-11T09:51:56;5.83;;;2.80;;
23187;SDS011;11762;59.878;17.686;2022-12-11T09:54:29;11.73;;;3.43;;
23187;SDS011;11762;59.878;17.686;2022-12-11T09:56:58;7.13;;;3.30;;
23187;SDS011;11762;59.878;17.686;2022-12-11T09:59:36;7.43;;;3.07;;
23187;SDS011;11762;59.878;17.686;2022-12-11T10:02:16;10.37;;;3.17;;
23187;SDS011;11762;59.878;17.686;2022-12-11T10:04:53;8.37;;;3.90;;
23187;SDS011;11762;59.878;17.686;2022-12-11T10:07:29;10.57;;;3.97;;
23187;SDS011;11762;59.878;17.686;2022-12-11T10:10:05;9.03;;;4.20;;
23187;SDS011;11762;59.878;17.686;2022-12-11T10:12:41;10.00;;;3.80;;
23187;SDS011;11762;59.878;17.686;2022-12-11T10:15:30;11.17;;;4.20;;
23187;SDS011;11762;59.878;17.686;2022-12-11T10:18:08;9.67;;;3.70;;
23187;SDS011;11762;59.878;17.686;2022-12-11T10:20:39;7.60;;;3.53;;
23187;SDS011;11762;59.878;17.686;2022-12-11T10:23:08;11.67;;;3.90;;
23187;SDS011;11762;59.878;17.686;2022-12-11T10:25:43;6.53;;;3.27;;
23187;SDS011;11762;59.878;17.686;2022-12-11T10:28:15;6.80;;;3.30;;
23187;SDS011;11762;59.878;17.686;2022-12-11T10:30:46;8.73;;;3.40;;
23187;SDS011;11762;59.878;17.686;2022-12-11T10:33:17;8.77;;;3.47;;
23187;SDS011;11762;59.878;17.686;2022-12-11T10:35:48;9.93;;;2.93;;
23187;SDS011;11762;59.878;17.686;2022-12-11T10:38:23;8.33;;;3.47;;
23187;SDS011;11762;59.878;17.686;2022-12-11T10:40:54;9.83;;;3.80;;
23187;SDS011;11762;59.878;17.686;2022-12-11T10:43:32;9.30;;;3.10;;
23187;SDS011;11762;59.878;17.686;2022-12-11T10:46:02;10.53;;;3.47;;
23187;SDS011;11762;59.878;17.686;2022-12-11T10:48:30;6.63;;;3.00;;
23187;SDS011;11762;59.878;17.686;2022-12-11T10:50:59;6.80;;;3.03;;
23187;SDS011;11762;59.878;17.686;2022-12-11T10:53:28;9.60;;;3.80;;
23187;SDS011;11762;59.878;17.686;2022-12-11T10:55:57;8.03;;;3.47;;
23187;SDS011;11762;59.878;17.686;2022-12-11T10:58:25;7.87;;;3.63;;
